sensor_id;sensor_type;location;lat;lon;timestamp;pressure;altitude;pressure_sealevel;temperature;humidity
77889;BME280;67082;41.704;44.768;2023-06-10T00:00:09;95367.19;;;21.14;65.99
77889;BME280;67082;41.704;44.768;2023-06-10T00:03:00;95372.34;;;21.10;66.49
77889;BME280;67082;41.704;44.768;2023-06-10T00:05:30;95369.06;;;21.06;66.06
77889;BME280;67082;41.704;44.768;2023-06-10T00:07:59;95371.13;;;21.06;65.77
77889;BME280;67082;41.704;44.768;2023-06-10T00:10:27;95375.22;;;21.05;66.07
77889;BME280;67082;41.704;44.768;2023-06-10T00:12:56;95376.22;;;21.07;66.33
77889;BME280;67082;41.704;44.768;2023-06-10T00:15:25;95373.41;;;21.07;66.39
77889;BME280;67082;41.704;44.768;2023-06-10T00:17:54;95365.19;;;21.09;65.63
77889;BME280;67082;41.704;44.768;2023-06-10T00:20:22;95367.47;;;21.11;65.74
77889;BME280;67082;41.704;44.768;2023-06-10T00:22:54;95368.69;;;21.15;65.63
77889;BME280;67082;41.704;44.768;2023-06-10T00:25:22;95360.03;;;21.13;65.83
77889;BME280;67082;41.704;44.768;2023-06-10T00:27:51;95359.72;;;21.17;66.29
77889;BME280;67082;41.704;44.768;2023-06-10T00:30:21;95362.31;;;21.15;65.97
77889;BME280;67082;41.704;44.768;2023-06-10T00:32:49;95364.38;;;21.14;66.00
77889;BME280;67082;41.704;44.768;2023-06-10T00:35:18;95361.53;;;21.14;65.01
77889;BME280;67082;41.704;44.768;2023-06-10T00:37:46;95363.25;;;21.23;65.90
77889;BME280;67082;41.704;44.768;2023-06-10T00:40:15;95366.38;;;21.19;65.24
77889;BME280;67082;41.704;44.768;2023-06-10T00:42:44;95365.66;;;21.13;65.98
77889;BME280;67082;41.704;44.768;2023-06-10T00:45:12;95361.06;;;21.10;66.46
77889;BME280;67082;41.704;44.768;2023-06-10T00:47:40;95367.69;;;21.13;66.67
77889;BME280;67082;41.704;44.768;2023-06-10T00:50:09;95360.03;;;21.13;66.55
77889;BME280;67082;41.704;44.768;2023-06-10T00:52:38;95362.63;;;21.11;66.35
77889;BME280;67082;41.704;44.768;2023-06-10T00:55:06;95364.13;;;21.12;66.34
77889;BME280;67082;41.704;44.768;2023-06-10T00:57:36;95361.06;;;21.10;66.61
77889;BME280;67082;41.704;44.768;2023-06-10T01:00:05;95358.03;;;21.08;66.93
77889;BME280;67082;41.704;44.768;2023-06-10T01:02:37;95359.53;;;21.09;66.79
77889;BME280;67082;41.704;44.768;2023-06-10T01:05:05;95363.13;;;21.10;67.16
77889;BME280;67082;41.704;44.768;2023-06-10T01:08:01;95366.69;;;21.10;66.99
77889;BME280;67082;41.704;44.768;2023-06-10T01:10:38;95371.28;;;21.13;67.03
77889;BME280;67082;41.704;44.768;2023-06-10T01:13:12;95375.63;;;21.14;67.00
77889;BME280;67082;41.704;44.768;2023-06-10T01:15:42;95373.41;;;21.07;67.09
77889;BME280;67082;41.704;44.768;2023-06-10T01:18:13;95371.88;;;21.06;66.33
77889;BME280;67082;41.704;44.768;2023-06-10T01:20:43;95373.63;;;21.09;66.95
77889;BME280;67082;41.704;44.768;2023-06-10T01:23:18;95372.34;;;21.10;66.55
77889;BME280;67082;41.704;44.768;2023-06-10T01:25:51;95377.72;;;21.14;67.06
77889;BME280;67082;41.704;44.768;2023-06-10T01:33:54;95381.50;;;21.16;67.36
77889;BME280;67082;41.704;44.768;2023-06-10T01:36:24;95368.94;;;21.17;66.42
77889;BME280;67082;41.704;44.768;2023-06-10T01:38:53;95372.47;;;21.23;66.29
77889;BME280;67082;41.704;44.768;2023-06-10T01:41:23;95373.00;;;21.22;65.86
77889;BME280;67082;41.704;44.768;2023-06-10T01:43:51;95372.47;;;21.23;66.30
77889;BME280;67082;41.704;44.768;2023-06-10T01:46:19;95375.03;;;21.21;66.97
77889;BME280;67082;41.704;44.768;2023-06-10T01:48:49;95369.19;;;21.19;66.01
77889;BME280;67082;41.704;44.768;2023-06-10T01:51:18;95368.13;;;21.22;66.50
77889;BME280;67082;41.704;44.768;2023-06-10T01:53:46;95371.91;;;21.25;66.40
77889;BME280;67082;41.704;44.768;2023-06-10T01:56:14;95374.47;;;21.28;65.90
77889;BME280;67082;41.704;44.768;2023-06-10T01:58:46;95362.78;;;21.19;66.23
77889;BME280;67082;41.704;44.768;2023-06-10T02:01:15;95376.75;;;21.06;66.30
77889;BME280;67082;41.704;44.768;2023-06-10T02:03:43;95379.03;;;21.07;66.79
77889;BME280;67082;41.704;44.768;2023-06-10T02:06:11;95371.28;;;21.13;66.75
77889;BME280;67082;41.704;44.768;2023-06-10T02:08:40;95369.00;;;21.12;66.59
77889;BME280;67082;41.704;44.768;2023-06-10T02:11:08;95384.59;;;21.13;66.69
77889;BME280;67082;41.704;44.768;2023-06-10T02:13:38;95388.44;;;21.15;66.73
77889;BME280;67082;41.704;44.768;2023-06-10T02:16:06;95387.59;;;21.20;66.90
77889;BME280;67082;41.704;44.768;2023-06-10T02:18:35;95385.03;;;21.22;67.07
77889;BME280;67082;41.704;44.768;2023-06-10T02:21:03;95393.25;;;21.20;66.62
77889;BME280;67082;41.704;44.768;2023-06-10T02:23:32;95389.19;;;21.16;67.25
77889;BME280;67082;41.704;44.768;2023-06-10T02:26:03;95392.66;;;21.27;67.13
77889;BME280;67082;41.704;44.768;2023-06-10T02:28:32;95389.59;;;21.25;67.00
77889;BME280;67082;41.704;44.768;2023-06-10T02:31:01;95397.06;;;21.23;66.37
77889;BME280;67082;41.704;44.768;2023-06-10T02:33:30;95393.72;;;21.24;66.34
77889;BME280;67082;41.704;44.768;2023-06-10T02:35:58;95387.59;;;21.20;66.87
77889;BME280;67082;41.704;44.768;2023-06-10T02:38:27;95402.19;;;21.24;66.95
77889;BME280;67082;41.704;44.768;2023-06-10T02:40:57;95396.25;;;21.28;67.01
77889;BME280;67082;41.704;44.768;2023-06-10T02:43:26;95399.25;;;21.35;66.43
77889;BME280;67082;41.704;44.768;2023-06-10T02:45:55;95397.72;;;21.34;66.58
77889;BME280;67082;41.704;44.768;2023-06-10T02:48:24;95397.41;;;21.38;66.01
77889;BME280;67082;41.704;44.768;2023-06-10T02:50:53;95405.50;;;21.47;65.84
77889;BME280;67082;41.704;44.768;2023-06-10T02:53:30;95402.38;;;21.50;66.05
77889;BME280;67082;41.704;44.768;2023-06-10T02:56:05;95407.88;;;21.61;65.63
77889;BME280;67082;41.704;44.768;2023-06-10T02:58:33;95406.03;;;21.69;65.45
77889;BME280;67082;41.704;44.768;2023-06-10T03:01:02;95405.78;;;21.67;65.14
77889;BME280;67082;41.704;44.768;2023-06-10T03:03:40;95400.84;;;21.73;64.62
77889;BME280;67082;41.704;44.768;2023-06-10T03:06:13;95402.53;;;21.82;65.09
77889;BME280;67082;41.704;44.768;2023-06-10T03:08:43;95399.19;;;21.83;65.04
77889;BME280;67082;41.704;44.768;2023-06-10T03:11:14;95403.53;;;21.84;64.78
77889;BME280;67082;41.704;44.768;2023-06-10T03:13:43;95399.41;;;21.85;64.25
77889;BME280;67082;41.704;44.768;2023-06-10T03:16:14;95399.19;;;21.83;64.39
77889;BME280;67082;41.704;44.768;2023-06-10T03:18:43;95400.31;;;21.75;62.93
77889;BME280;67082;41.704;44.768;2023-06-10T03:21:12;95402.84;;;21.78;64.15
77889;BME280;67082;41.704;44.768;2023-06-10T03:23:41;95407.78;;;21.72;63.95
77889;BME280;67082;41.704;44.768;2023-06-10T03:26:11;95406.22;;;21.77;63.40
77889;BME280;67082;41.704;44.768;2023-06-10T03:28:43;95405.50;;;21.71;63.61
77889;BME280;67082;41.704;44.768;2023-06-10T03:31:11;95393.94;;;21.74;63.45
77889;BME280;67082;41.704;44.768;2023-06-10T03:33:40;95401.63;;;21.74;63.54
77889;BME280;67082;41.704;44.768;2023-06-10T03:36:08;95401.78;;;21.81;63.30
77889;BME280;67082;41.704;44.768;2023-06-10T03:38:37;95399.66;;;21.87;63.14
77889;BME280;67082;41.704;44.768;2023-06-10T03:41:07;95398.56;;;21.90;63.09
77889;BME280;67082;41.704;44.768;2023-06-10T03:43:38;95401.19;;;21.88;63.14
77889;BME280;67082;41.704;44.768;2023-06-10T03:46:08;95392.94;;;21.90;63.25
77889;BME280;67082;41.704;44.768;2023-06-10T03:48:38;95397.56;;;21.88;63.41
77889;BME280;67082;41.704;44.768;2023-06-10T03:51:07;95396.53;;;21.91;63.49
77889;BME280;67082;41.704;44.768;2023-06-10T03:53:36;95395.69;;;21.96;63.04
77889;BME280;67082;41.704;44.768;2023-06-10T03:56:05;95395.38;;;21.99;63.40
77889;BME280;67082;41.704;44.768;2023-06-10T03:58:34;95390.44;;;22.05;63.21
77889;BME280;67082;41.704;44.768;2023-06-10T04:01:03;95402.78;;;22.02;63.66
77889;BME280;67082;41.704;44.768;2023-06-10T04:03:35;95396.53;;;22.09;63.47
77889;BME280;67082;41.704;44.768;2023-06-10T04:06:03;95404.06;;;22.01;63.57
77889;BME280;67082;41.704;44.768;2023-06-10T04:08:33;95399.03;;;21.94;63.92
77889;BME280;67082;41.704;44.768;2023-06-10T04:11:01;95401.72;;;22.05;63.68
77889;BME280;67082;41.704;44.768;2023-06-10T04:13:30;95401.56;;;22.16;63.40
77889;BME280;67082;41.704;44.768;2023-06-10T04:16:00;95398.75;;;22.16;63.68
77889;BME280;67082;41.704;44.768;2023-06-10T04:18:28;95398.28;;;22.12;63.68
77889;BME280;67082;41.704;44.768;2023-06-10T04:21:01;95403.91;;;22.12;63.83
77889;BME280;67082;41.704;44.768;2023-06-10T04:23:31;95391.41;;;22.26;63.46
77889;BME280;67082;41.704;44.768;2023-06-10T04:25:59;95401.00;;;22.36;63.44
77889;BME280;67082;41.704;44.768;2023-06-10T04:28:29;95402.22;;;22.41;63.28
77889;BME280;67082;41.704;44.768;2023-06-10T04:30:59;95408.69;;;22.54;63.18
77889;BME280;67082;41.704;44.768;2023-06-10T04:33:28;95408.50;;;22.52;63.33
77889;BME280;67082;41.704;44.768;2023-06-10T04:35:56;95400.94;;;22.60;63.31
77889;BME280;67082;41.704;44.768;2023-06-10T04:38:28;95403.97;;;22.62;62.95
77889;BME280;67082;41.704;44.768;2023-06-10T04:41:00;95402.81;;;22.71;62.68
77889;BME280;67082;41.704;44.768;2023-06-10T04:43:31;95396.84;;;22.74;62.79
77889;BME280;67082;41.704;44.768;2023-06-10T04:46:01;95401.72;;;22.74;62.86
77889;BME280;67082;41.704;44.768;2023-06-10T04:48:30;95395.06;;;22.71;62.60
77889;BME280;67082;41.704;44.768;2023-06-10T04:50:58;95390.53;;;22.81;62.53
77889;BME280;67082;41.704;44.768;2023-06-10T04:53:27;95394.56;;;22.86;61.74
77889;BME280;67082;41.704;44.768;2023-06-10T04:55:56;95387.75;;;22.94;61.51
77889;BME280;67082;41.704;44.768;2023-06-10T04:58:25;95389.09;;;23.06;61.28
77889;BME280;67082;41.704;44.768;2023-06-10T05:00:53;95384.34;;;23.27;60.68
77889;BME280;67082;41.704;44.768;2023-06-10T05:03:22;95388.06;;;23.35;60.14
77889;BME280;67082;41.704;44.768;2023-06-10T05:05:50;95380.25;;;23.41;59.74
77889;BME280;67082;41.704;44.768;2023-06-10T05:08:20;95380.91;;;23.47;59.44
77889;BME280;67082;41.704;44.768;2023-06-10T05:10:48;95378.06;;;23.47;59.16
77889;BME280;67082;41.704;44.768;2023-06-10T05:13:17;95381.09;;;23.62;58.58
77889;BME280;67082;41.704;44.768;2023-06-10T05:15:45;95381.53;;;23.53;58.81
77889;BME280;67082;41.704;44.768;2023-06-10T05:18:14;95371.53;;;23.65;58.70
77889;BME280;67082;41.704;44.768;2023-06-10T05:20:42;95368.47;;;23.63;58.88
77889;BME280;67082;41.704;44.768;2023-06-10T05:23:13;95378.78;;;23.87;57.71
77889;BME280;67082;41.704;44.768;2023-06-10T05:25:41;95376.94;;;24.02;57.02
77889;BME280;67082;41.704;44.768;2023-06-10T05:28:10;95366.47;;;23.97;57.04
77889;BME280;67082;41.704;44.768;2023-06-10T05:30:43;95370.81;;;23.85;57.32
77889;BME280;67082;41.704;44.768;2023-06-10T05:33:12;95368.47;;;23.89;58.04
77889;BME280;67082;41.704;44.768;2023-06-10T05:35:41;95364.66;;;23.74;57.68
77889;BME280;67082;41.704;44.768;2023-06-10T05:38:10;95353.97;;;23.80;58.25
77889;BME280;67082;41.704;44.768;2023-06-10T05:40:38;95350.72;;;23.76;59.01
77889;BME280;67082;41.704;44.768;2023-06-10T05:43:08;95358.88;;;23.79;59.39
77889;BME280;67082;41.704;44.768;2023-06-10T05:45:37;95362.38;;;23.72;59.00
77889;BME280;67082;41.704;44.768;2023-06-10T05:48:06;95362.50;;;23.67;59.65
77889;BME280;67082;41.704;44.768;2023-06-10T05:50:34;95355.97;;;23.59;59.98
77889;BME280;67082;41.704;44.768;2023-06-10T05:53:06;95349.63;;;23.66;59.64
77889;BME280;67082;41.704;44.768;2023-06-10T05:55:35;95352.56;;;23.73;58.37
77889;BME280;67082;41.704;44.768;2023-06-10T05:58:04;95350.63;;;23.81;58.19
77889;BME280;67082;41.704;44.768;2023-06-10T06:00:32;95353.22;;;23.79;58.19
77889;BME280;67082;41.704;44.768;2023-06-10T06:03:06;95355.38;;;23.86;57.67
77889;BME280;67082;41.704;44.768;2023-06-10T06:05:37;95354.19;;;23.95;58.38
77889;BME280;67082;41.704;44.768;2023-06-10T06:08:07;95353.44;;;23.81;58.53
77889;BME280;67082;41.704;44.768;2023-06-10T06:10:35;95349.44;;;23.90;58.17
77889;BME280;67082;41.704;44.768;2023-06-10T06:13:03;95356.69;;;23.98;58.45
77889;BME280;67082;41.704;44.768;2023-06-10T06:15:31;95356.56;;;24.04;59.08
77889;BME280;67082;41.704;44.768;2023-06-10T06:18:00;95348.16;;;24.11;58.85
77889;BME280;67082;41.704;44.768;2023-06-10T06:20:28;95353.34;;;24.20;58.50
77889;BME280;67082;41.704;44.768;2023-06-10T06:22:56;95355.63;;;24.22;58.36
77889;BME280;67082;41.704;44.768;2023-06-10T06:25:24;95350.31;;;24.18;58.44
77889;BME280;67082;41.704;44.768;2023-06-10T06:27:53;95354.75;;;24.27;57.60
77889;BME280;67082;41.704;44.768;2023-06-10T06:30:21;95353.78;;;24.24;58.36
77889;BME280;67082;41.704;44.768;2023-06-10T06:32:50;95353.53;;;24.35;57.52
77889;BME280;67082;41.704;44.768;2023-06-10T06:35:19;95339.47;;;24.30;57.36
77889;BME280;67082;41.704;44.768;2023-06-10T06:37:48;95344.75;;;24.46;56.24
77889;BME280;67082;41.704;44.768;2023-06-10T06:40:24;95335.06;;;24.75;55.34
77889;BME280;67082;41.704;44.768;2023-06-10T06:42:53;95338.22;;;24.92;55.45
77889;BME280;67082;41.704;44.768;2023-06-10T06:45:57;95340.72;;;25.24;55.18
77889;BME280;67082;41.704;44.768;2023-06-10T06:48:26;95327.53;;;25.26;54.68
77889;BME280;67082;41.704;44.768;2023-06-10T06:50:54;95332.31;;;25.31;53.97
77889;BME280;67082;41.704;44.768;2023-06-10T06:53:24;95323.50;;;25.50;53.59
77889;BME280;67082;41.704;44.768;2023-06-10T06:55:54;95323.88;;;25.46;53.13
77889;BME280;67082;41.704;44.768;2023-06-10T06:58:22;95313.97;;;25.32;53.39
77889;BME280;67082;41.704;44.768;2023-06-10T07:00:50;95320.13;;;25.51;52.81
77889;BME280;67082;41.704;44.768;2023-06-10T07:03:20;95317.72;;;25.63;52.37
77889;BME280;67082;41.704;44.768;2023-06-10T07:05:49;95314.56;;;25.74;51.18
77889;BME280;67082;41.704;44.768;2023-06-10T07:08:17;95315.38;;;25.89;51.68
77889;BME280;67082;41.704;44.768;2023-06-10T07:10:45;95300.19;;;25.79;51.05
77889;BME280;67082;41.704;44.768;2023-06-10T07:13:15;95303.25;;;25.89;51.10
77889;BME280;67082;41.704;44.768;2023-06-10T07:15:43;95304.69;;;26.03;49.04
77889;BME280;67082;41.704;44.768;2023-06-10T07:18:11;95307.91;;;26.14;49.43
77889;BME280;67082;41.704;44.768;2023-06-10T07:20:40;95314.94;;;26.28;47.59
77889;BME280;67082;41.704;44.768;2023-06-10T07:23:09;95313.28;;;26.40;48.34
77889;BME280;67082;41.704;44.768;2023-06-10T07:25:37;95312.16;;;26.51;47.85
77889;BME280;67082;41.704;44.768;2023-06-10T07:28:06;95301.19;;;26.47;47.07
77889;BME280;67082;41.704;44.768;2023-06-10T07:30:34;95297.06;;;26.56;47.03
77889;BME280;67082;41.704;44.768;2023-06-10T07:33:02;95296.31;;;26.70;46.72
77889;BME280;67082;41.704;44.768;2023-06-10T07:35:30;95287.97;;;26.80;46.74
77889;BME280;67082;41.704;44.768;2023-06-10T07:37:59;95294.03;;;26.69;46.61
77889;BME280;67082;41.704;44.768;2023-06-10T07:40:27;95294.78;;;26.69;46.09
77889;BME280;67082;41.704;44.768;2023-06-10T07:42:55;95279.78;;;26.91;46.02
77889;BME280;67082;41.704;44.768;2023-06-10T07:45:23;95276.56;;;27.10;45.58
77889;BME280;67082;41.704;44.768;2023-06-10T07:47:52;95279.59;;;27.27;44.98
77889;BME280;67082;41.704;44.768;2023-06-10T07:50:20;95281.09;;;27.35;44.86
77889;BME280;67082;41.704;44.768;2023-06-10T07:52:48;95270.09;;;27.32;45.35
77889;BME280;67082;41.704;44.768;2023-06-10T07:55:17;95275.41;;;27.35;45.43
77889;BME280;67082;41.704;44.768;2023-06-10T07:57:46;95268.59;;;27.16;45.52
77889;BME280;67082;41.704;44.768;2023-06-10T08:00:14;95259.50;;;27.32;45.11
77889;BME280;67082;41.704;44.768;2023-06-10T08:02:44;95258.31;;;27.35;45.18
77889;BME280;67082;41.704;44.768;2023-06-10T08:05:13;95252.66;;;27.28;45.03
77889;BME280;67082;41.704;44.768;2023-06-10T08:07:42;95248.84;;;27.40;44.97
77889;BME280;67082;41.704;44.768;2023-06-10T08:10:10;95247.31;;;27.39;44.92
77889;BME280;67082;41.704;44.768;2023-06-10T08:12:39;95245.19;;;27.47;45.66
77889;BME280;67082;41.704;44.768;2023-06-10T08:15:07;95242.31;;;27.62;44.79
77889;BME280;67082;41.704;44.768;2023-06-10T08:17:37;95246.13;;;27.57;44.86
77889;BME280;67082;41.704;44.768;2023-06-10T08:20:06;95240.44;;;27.50;44.64
77889;BME280;67082;41.704;44.768;2023-06-10T08:22:35;95228.53;;;27.44;45.15
77889;BME280;67082;41.704;44.768;2023-06-10T08:25:03;95230.53;;;27.66;45.15
77889;BME280;67082;41.704;44.768;2023-06-10T08:27:32;95230.91;;;27.62;44.12
77889;BME280;67082;41.704;44.768;2023-06-10T08:30:00;95222.31;;;27.15;44.76
77889;BME280;67082;41.704;44.768;2023-06-10T08:32:32;95225.03;;;27.60;44.33
77889;BME280;67082;41.704;44.768;2023-06-10T08:35:00;95221.03;;;27.63;44.21
77889;BME280;67082;41.704;44.768;2023-06-10T08:37:30;95216.66;;;27.70;44.20
77889;BME280;67082;41.704;44.768;2023-06-10T08:39:58;95215.50;;;27.80;43.78
77889;BME280;67082;41.704;44.768;2023-06-10T08:42:39;95216.88;;;27.57;43.77
77889;BME280;67082;41.704;44.768;2023-06-10T08:45:13;95205.56;;;27.49;44.44
77889;BME280;67082;41.704;44.768;2023-06-10T08:47:49;95206.38;;;27.35;44.53
77889;BME280;67082;41.704;44.768;2023-06-10T08:50:22;95205.97;;;27.38;44.78
77889;BME280;67082;41.704;44.768;2023-06-10T08:52:54;95203.69;;;27.37;44.65
77889;BME280;67082;41.704;44.768;2023-06-10T08:55:38;95204.97;;;27.43;44.03
77889;BME280;67082;41.704;44.768;2023-06-10T08:58:10;95199.75;;;27.79;43.78
77889;BME280;67082;41.704;44.768;2023-06-10T09:00:41;95195.16;;;27.76;43.60
77889;BME280;67082;41.704;44.768;2023-06-10T09:03:11;95193.78;;;27.53;44.23
77889;BME280;67082;41.704;44.768;2023-06-10T09:05:41;95201.34;;;27.58;44.78
77889;BME280;67082;41.704;44.768;2023-06-10T09:08:10;95189.31;;;27.67;43.49
77889;BME280;67082;41.704;44.768;2023-06-10T09:10:38;95188.31;;;27.40;43.79
77889;BME280;67082;41.704;44.768;2023-06-10T09:13:07;95182.97;;;27.44;44.02
77889;BME280;67082;41.704;44.768;2023-06-10T09:15:35;95169.75;;;27.31;44.07
77889;BME280;67082;41.704;44.768;2023-06-10T09:18:03;95171.47;;;27.27;44.01
77889;BME280;67082;41.704;44.768;2023-06-10T09:20:38;95159.72;;;27.23;44.02
77889;BME280;67082;41.704;44.768;2023-06-10T09:23:07;95160.59;;;27.48;43.54
77889;BME280;67082;41.704;44.768;2023-06-10T09:25:37;95167.22;;;27.50;44.07
77889;BME280;67082;41.704;44.768;2023-06-10T09:28:14;95174.91;;;27.65;44.13
77889;BME280;67082;41.704;44.768;2023-06-10T09:30:43;95170.69;;;27.73;44.27
77889;BME280;67082;41.704;44.768;2023-06-10T09:33:13;95169.13;;;27.87;43.90
77889;BME280;67082;41.704;44.768;2023-06-10T09:35:47;95162.81;;;27.96;44.37
77889;BME280;67082;41.704;44.768;2023-06-10T09:38:20;95164.56;;;28.16;43.96
77889;BME280;67082;41.704;44.768;2023-06-10T09:40:53;95169.91;;;28.12;44.92
77889;BME280;67082;41.704;44.768;2023-06-10T09:43:22;95165.72;;;28.13;42.97
77889;BME280;67082;41.704;44.768;2023-06-10T09:45:50;95160.66;;;28.04;42.90
77889;BME280;67082;41.704;44.768;2023-06-10T09:48:22;95157.41;;;28.08;42.98
77889;BME280;67082;41.704;44.768;2023-06-10T09:50:51;95155.72;;;28.05;42.87
77889;BME280;67082;41.704;44.768;2023-06-10T09:53:20;95147.34;;;28.07;42.95
77889;BME280;67082;41.704;44.768;2023-06-10T09:55:48;95159.16;;;28.03;43.28
77889;BME280;67082;41.704;44.768;2023-06-10T09:58:17;95154.75;;;28.10;42.82
77889;BME280;67082;41.704;44.768;2023-06-10T10:00:52;95141.41;;;28.12;42.37
77889;BME280;67082;41.704;44.768;2023-06-10T10:03:22;95132.75;;;27.78;43.13
77889;BME280;67082;41.704;44.768;2023-06-10T10:05:58;95136.69;;;27.83;42.67
77889;BME280;67082;41.704;44.768;2023-06-10T10:08:27;95138.16;;;27.91;43.35
77889;BME280;67082;41.704;44.768;2023-06-10T10:10:56;95128.22;;;28.00;43.16
77889;BME280;67082;41.704;44.768;2023-06-10T10:13:26;95128.00;;;27.73;43.28
77889;BME280;67082;41.704;44.768;2023-06-10T10:16:00;95119.91;;;27.62;43.54
77889;BME280;67082;41.704;44.768;2023-06-10T10:18:31;95117.34;;;27.73;43.68
77889;BME280;67082;41.704;44.768;2023-06-10T10:21:04;95122.63;;;27.77;43.32
77889;BME280;67082;41.704;44.768;2023-06-10T10:23:52;95112.81;;;27.78;43.67
77889;BME280;67082;41.704;44.768;2023-06-10T10:26:24;95115.94;;;27.90;43.70
77889;BME280;67082;41.704;44.768;2023-06-10T10:29:22;95102.69;;;27.53;43.79
77889;BME280;67082;41.704;44.768;2023-06-10T10:31:51;95103.16;;;27.34;43.62
77889;BME280;67082;41.704;44.768;2023-06-10T10:34:29;95081.63;;;27.16;44.15
77889;BME280;67082;41.704;44.768;2023-06-10T10:37:03;95095.84;;;27.48;43.60
77889;BME280;67082;41.704;44.768;2023-06-10T10:39:34;95097.41;;;27.49;43.48
77889;BME280;67082;41.704;44.768;2023-06-10T10:42:04;95112.19;;;27.48;43.03
77889;BME280;67082;41.704;44.768;2023-06-10T10:44:32;95116.38;;;27.47;43.62
77889;BME280;67082;41.704;44.768;2023-06-10T10:47:02;95112.81;;;27.39;43.75
77889;BME280;67082;41.704;44.768;2023-06-10T10:49:35;95117.13;;;27.47;43.90
77889;BME280;67082;41.704;44.768;2023-06-10T10:52:04;95112.59;;;27.44;43.45
77889;BME280;67082;41.704;44.768;2023-06-10T10:54:43;95108.81;;;27.42;43.91
77889;BME280;67082;41.704;44.768;2023-06-10T10:57:19;95102.44;;;27.58;43.12
77889;BME280;67082;41.704;44.768;2023-06-10T11:05:16;95100.69;;;27.38;43.16
77889;BME280;67082;41.704;44.768;2023-06-10T11:07:55;95094.78;;;27.36;43.12
77889;BME280;67082;41.704;44.768;2023-06-10T11:10:37;95093.13;;;27.33;43.30
77889;BME280;67082;41.704;44.768;2023-06-10T11:13:13;95084.22;;;27.29;43.14
77889;BME280;67082;41.704;44.768;2023-06-10T11:15:46;95072.47;;;27.25;43.39
77889;BME280;67082;41.704;44.768;2023-06-10T11:18:26;95078.38;;;27.12;43.13
77889;BME280;67082;41.704;44.768;2023-06-10T11:20:58;95080.81;;;27.16;43.67
77889;BME280;67082;41.704;44.768;2023-06-10T11:26:18;95071.56;;;27.15;43.94
77889;BME280;67082;41.704;44.768;2023-06-10T11:33:59;95064.47;;;27.31;43.68
77889;BME280;67082;41.704;44.768;2023-06-10T11:36:28;95046.69;;;27.16;43.65
77889;BME280;67082;41.704;44.768;2023-06-10T11:38:58;95037.97;;;27.21;44.03
77889;BME280;67082;41.704;44.768;2023-06-10T11:41:28;95029.69;;;27.40;43.62
77889;BME280;67082;41.704;44.768;2023-06-10T11:44:03;95035.88;;;27.22;43.32
77889;BME280;67082;41.704;44.768;2023-06-10T11:46:33;95031.72;;;27.15;43.83
77889;BME280;67082;41.704;44.768;2023-06-10T11:49:03;95042.94;;;27.06;43.82
77889;BME280;67082;41.704;44.768;2023-06-10T11:51:36;95035.34;;;27.08;44.24
77889;BME280;67082;41.704;44.768;2023-06-10T11:54:05;95022.84;;;27.11;43.29
77889;BME280;67082;41.704;44.768;2023-06-10T11:56:35;95034.53;;;27.23;43.58
77889;BME280;67082;41.704;44.768;2023-06-10T11:59:07;95036.41;;;27.28;43.36
77889;BME280;67082;41.704;44.768;2023-06-10T12:01:38;95036.13;;;27.16;43.01
77889;BME280;67082;41.704;44.768;2023-06-10T12:04:12;95032.88;;;27.12;43.29
77889;BME280;67082;41.704;44.768;2023-06-10T12:06:46;95028.50;;;27.19;43.28
77889;BME280;67082;41.704;44.768;2023-06-10T12:09:24;95019.28;;;27.35;43.15
77889;BME280;67082;41.704;44.768;2023-06-10T12:14:54;95026.91;;;27.33;42.67
77889;BME280;67082;41.704;44.768;2023-06-10T12:20:00;95019.78;;;27.17;43.16
77889;BME280;67082;41.704;44.768;2023-06-10T12:22:42;95009.19;;;27.10;42.99
77889;BME280;67082;41.704;44.768;2023-06-10T12:25:12;95011.63;;;27.13;43.25
77889;BME280;67082;41.704;44.768;2023-06-10T12:27:50;95014.09;;;27.17;43.61
77889;BME280;67082;41.704;44.768;2023-06-10T12:30:21;95017.13;;;27.11;43.16
77889;BME280;67082;41.704;44.768;2023-06-10T12:32:50;95016.06;;;26.99;43.08
77889;BME280;67082;41.704;44.768;2023-06-10T12:35:22;95017.47;;;26.83;43.21
77889;BME280;67082;41.704;44.768;2023-06-10T12:37:57;95034.53;;;26.83;44.06
77889;BME280;67082;41.704;44.768;2023-06-10T12:40:31;95048.56;;;26.81;44.49
77889;BME280;67082;41.704;44.768;2023-06-10T12:43:01;95051.44;;;26.74;45.12
77889;BME280;67082;41.704;44.768;2023-06-10T12:45:37;95054.47;;;26.68;46.09
77889;BME280;67082;41.704;44.768;2023-06-10T12:48:22;95054.13;;;26.64;46.49
77889;BME280;67082;41.704;44.768;2023-06-10T12:50:55;95061.72;;;26.62;46.66
77889;BME280;67082;41.704;44.768;2023-06-10T12:53:25;95059.41;;;26.53;46.22
77889;BME280;67082;41.704;44.768;2023-06-10T12:55:54;95061.72;;;26.47;46.24
77889;BME280;67082;41.704;44.768;2023-06-10T12:58:23;95062.47;;;26.47;47.23
77889;BME280;67082;41.704;44.768;2023-06-10T13:00:52;95067.22;;;26.37;46.53
77889;BME280;67082;41.704;44.768;2023-06-10T13:03:22;95064.00;;;26.33;46.76
77889;BME280;67082;41.704;44.768;2023-06-10T13:05:50;95069.34;;;26.29;47.29
77889;BME280;67082;41.704;44.768;2023-06-10T13:08:18;95067.44;;;26.32;46.62
77889;BME280;67082;41.704;44.768;2023-06-10T13:10:46;95071.22;;;26.27;46.85
77889;BME280;67082;41.704;44.768;2023-06-10T13:13:17;95086.00;;;26.18;47.30
77889;BME280;67082;41.704;44.768;2023-06-10T13:15:45;95083.38;;;26.12;47.69
77889;BME280;67082;41.704;44.768;2023-06-10T13:18:13;95083.75;;;25.94;48.35
77889;BME280;67082;41.704;44.768;2023-06-10T13:20:41;95081.06;;;25.88;48.59
77889;BME280;67082;41.704;44.768;2023-06-10T13:23:10;95092.44;;;25.88;48.77
77889;BME280;67082;41.704;44.768;2023-06-10T13:25:38;95085.22;;;25.72;49.12
77889;BME280;67082;41.704;44.768;2023-06-10T13:28:08;95091.25;;;25.61;49.11
77889;BME280;67082;41.704;44.768;2023-06-10T13:30:37;95091.41;;;25.56;49.61